sensor_id;sensor_type;location;lat;lon;timestamp;pressure;altitude;pressure_sealevel;temperature;humidity
28935;BME280;16044;52.726;-2.108;2022-07-04T00:00:49;101150.97;;;12.97;70.54
28935;BME280;16044;52.726;-2.108;2022-07-04T00:03:16;101150.47;;;12.93;70.79
28935;BME280;16044;52.726;-2.108;2022-07-04T00:05:43;101146.22;;;12.91;71.06
28935;BME280;16044;52.726;-2.108;2022-07-04T00:08:10;101143.50;;;12.91;70.90
28935;BME280;16044;52.726;-2.108;2022-07-04T00:10:37;101142.81;;;12.88;71.04
28935;BME280;16044;52.726;-2.108;2022-07-04T00:13:04;101140.09;;;12.88;70.97
28935;BME280;16044;52.726;-2.108;2022-07-04T00:15:32;101137.75;;;12.85;71.12
28935;BME280;16044;52.726;-2.108;2022-07-04T00:17:59;101132.47;;;12.84;71.44
28935;BME280;16044;52.726;-2.108;2022-07-04T00:20:26;101136.88;;;12.85;71.25
28935;BME280;16044;52.726;-2.108;2022-07-04T00:22:53;101132.78;;;12.89;71.31
28935;BME280;16044;52.726;-2.108;2022-07-04T00:25:20;101135.22;;;12.84;71.50
28935;BME280;16044;52.726;-2.108;2022-07-04T00:27:46;101135.88;;;12.86;71.13
28935;BME280;16044;52.726;-2.108;2022-07-04T00:30:14;101133.16;;;12.86;71.34
28935;BME280;16044;52.726;-2.108;2022-07-04T00:32:41;101134.00;;;12.86;71.31
28935;BME280;16044;52.726;-2.108;2022-07-04T00:35:08;101125.50;;;12.90;71.17
28935;BME280;16044;52.726;-2.108;2022-07-04T00:37:35;101131.78;;;12.90;71.43
28935;BME280;16044;52.726;-2.108;2022-07-04T00:40:02;101125.00;;;12.86;71.80
28935;BME280;16044;52.726;-2.108;2022-07-04T00:42:30;101117.34;;;12.90;71.23
28935;BME280;16044;52.726;-2.108;2022-07-04T00:44:57;101130.06;;;12.89;71.24
28935;BME280;16044;52.726;-2.108;2022-07-04T00:47:23;101111.00;;;12.89;71.27
28935;BME280;16044;52.726;-2.108;2022-07-04T00:49:50;101104.91;;;12.87;71.33
28935;BME280;16044;52.726;-2.108;2022-07-04T00:52:17;101111.38;;;12.86;71.38
28935;BME280;16044;52.726;-2.108;2022-07-04T00:54:45;101109.69;;;12.85;71.29
28935;BME280;16044;52.726;-2.108;2022-07-04T00:57:13;101105.44;;;12.82;71.46
28935;BME280;16044;52.726;-2.108;2022-07-04T00:59:40;101096.44;;;12.82;71.54
28935;BME280;16044;52.726;-2.108;2022-07-04T01:02:07;101099.16;;;12.82;71.61
28935;BME280;16044;52.726;-2.108;2022-07-04T01:04:35;101089.47;;;12.79;71.52
28935;BME280;16044;52.726;-2.108;2022-07-04T01:07:03;101087.78;;;12.78;71.57
28935;BME280;16044;52.726;-2.108;2022-07-04T01:09:31;101081.84;;;12.75;71.45
28935;BME280;16044;52.726;-2.108;2022-07-04T01:11:58;101092.72;;;12.75;71.66
28935;BME280;16044;52.726;-2.108;2022-07-04T01:14:25;101095.78;;;12.72;71.97
28935;BME280;16044;52.726;-2.108;2022-07-04T01:16:52;101093.94;;;12.72;71.81
28935;BME280;16044;52.726;-2.108;2022-07-04T01:19:19;101087.63;;;12.72;71.71
28935;BME280;16044;52.726;-2.108;2022-07-04T01:21:45;101085.59;;;12.74;71.49
28935;BME280;16044;52.726;-2.108;2022-07-04T01:24:13;101076.91;;;12.70;71.45
28935;BME280;16044;52.726;-2.108;2022-07-04T01:26:40;101073.03;;;12.64;72.15
28935;BME280;16044;52.726;-2.108;2022-07-04T01:29:07;101069.81;;;12.69;71.50
28935;BME280;16044;52.726;-2.108;2022-07-04T01:31:34;101078.47;;;12.64;71.87
28935;BME280;16044;52.726;-2.108;2022-07-04T01:34:01;101092.06;;;12.64;71.63
28935;BME280;16044;52.726;-2.108;2022-07-04T01:36:27;101086.63;;;12.64;71.55
28935;BME280;16044;52.726;-2.108;2022-07-04T01:38:54;101087.84;;;12.62;71.66
28935;BME280;16044;52.726;-2.108;2022-07-04T01:41:23;101085.97;;;12.62;71.77
28935;BME280;16044;52.726;-2.108;2022-07-04T01:43:50;101079.84;;;12.60;71.68
28935;BME280;16044;52.726;-2.108;2022-07-04T01:46:17;101090.72;;;12.60;71.65
28935;BME280;16044;52.726;-2.108;2022-07-04T01:48:44;101081.56;;;12.61;71.61
28935;BME280;16044;52.726;-2.108;2022-07-04T01:51:11;101079.84;;;12.60;71.49
28935;BME280;16044;52.726;-2.108;2022-07-04T01:53:38;101091.59;;;12.61;71.48
28935;BME280;16044;52.726;-2.108;2022-07-04T01:56:05;101087.34;;;12.58;71.61
28935;BME280;16044;52.726;-2.108;2022-07-04T01:58:32;101078.50;;;12.56;71.86
28935;BME280;16044;52.726;-2.108;2022-07-04T02:00:59;101090.78;;;12.52;71.42
28935;BME280;16044;52.726;-2.108;2022-07-04T02:03:44;101094.88;;;12.48;71.51
28935;BME280;16044;52.726;-2.108;2022-07-04T02:06:12;101083.50;;;12.44;71.53
28935;BME280;16044;52.726;-2.108;2022-07-04T02:08:39;101088.75;;;12.38;71.56
28935;BME280;16044;52.726;-2.108;2022-07-04T02:11:24;101084.69;;;12.34;71.35
28935;BME280;16044;52.726;-2.108;2022-07-04T02:13:52;101090.31;;;12.24;72.05
28935;BME280;16044;52.726;-2.108;2022-07-04T02:16:19;101092.38;;;12.22;71.66
28935;BME280;16044;52.726;-2.108;2022-07-04T02:18:46;101086.44;;;12.18;71.76
28935;BME280;16044;52.726;-2.108;2022-07-04T02:21:13;101092.56;;;12.12;72.26
28935;BME280;16044;52.726;-2.108;2022-07-04T02:23:40;101086.78;;;12.07;72.44
28935;BME280;16044;52.726;-2.108;2022-07-04T02:26:07;101072.34;;;11.98;72.46
28935;BME280;16044;52.726;-2.108;2022-07-04T02:28:34;101074.94;;;11.92;72.83
28935;BME280;16044;52.726;-2.108;2022-07-04T02:31:01;101071.84;;;11.86;73.10
28935;BME280;16044;52.726;-2.108;2022-07-04T02:33:28;101063.69;;;11.78;73.19
28935;BME280;16044;52.726;-2.108;2022-07-04T02:35:55;101068.78;;;11.73;73.51
28935;BME280;16044;52.726;-2.108;2022-07-04T02:38:22;101070.31;;;11.67;73.72
28935;BME280;16044;52.726;-2.108;2022-07-04T02:40:49;101072.50;;;11.64;73.70
28935;BME280;16044;52.726;-2.108;2022-07-04T02:43:15;101066.75;;;11.59;73.44
28935;BME280;16044;52.726;-2.108;2022-07-04T02:45:42;101074.19;;;11.57;73.54
28935;BME280;16044;52.726;-2.108;2022-07-04T02:48:09;101078.97;;;11.55;73.36
28935;BME280;16044;52.726;-2.108;2022-07-04T02:50:36;101066.41;;;11.54;73.92
28935;BME280;16044;52.726;-2.108;2022-07-04T02:53:03;101059.13;;;11.46;74.21
28935;BME280;16044;52.726;-2.108;2022-07-04T02:55:30;101072.16;;;11.50;73.99
28935;BME280;16044;52.726;-2.108;2022-07-04T02:57:57;101070.66;;;11.48;73.99
28935;BME280;16044;52.726;-2.108;2022-07-04T03:00:24;101077.25;;;11.45;73.94
28935;BME280;16044;52.726;-2.108;2022-07-04T03:02:50;101070.13;;;11.44;74.22
28935;BME280;16044;52.726;-2.108;2022-07-04T03:05:17;101064.03;;;11.42;74.41
28935;BME280;16044;52.726;-2.108;2022-07-04T03:07:44;101063.19;;;11.42;74.36
28935;BME280;16044;52.726;-2.108;2022-07-04T03:10:11;101072.00;;;11.44;74.75
28935;BME280;16044;52.726;-2.108;2022-07-04T03:12:38;101069.09;;;11.45;74.67
28935;BME280;16044;52.726;-2.108;2022-07-04T03:15:06;101065.72;;;11.43;75.16
28935;BME280;16044;52.726;-2.108;2022-07-04T03:17:33;101064.19;;;11.49;75.04
28935;BME280;16044;52.726;-2.108;2022-07-04T03:20:00;101061.00;;;11.54;74.99
28935;BME280;16044;52.726;-2.108;2022-07-04T03:22:27;101060.63;;;11.57;74.83
28935;BME280;16044;52.726;-2.108;2022-07-04T03:24:54;101059.63;;;11.58;74.57
28935;BME280;16044;52.726;-2.108;2022-07-04T03:27:21;101055.38;;;11.55;74.89
28935;BME280;16044;52.726;-2.108;2022-07-04T03:29:48;101058.09;;;11.55;74.91
28935;BME280;16044;52.726;-2.108;2022-07-04T03:32:14;101051.47;;;11.58;74.94
28935;BME280;16044;52.726;-2.108;2022-07-04T03:34:41;101049.75;;;11.57;75.37
28935;BME280;16044;52.726;-2.108;2022-07-04T03:37:08;101053.50;;;11.64;74.64
28935;BME280;16044;52.726;-2.108;2022-07-04T03:39:35;101053.34;;;11.65;75.12
28935;BME280;16044;52.726;-2.108;2022-07-04T03:42:02;101054.84;;;11.68;75.11
28935;BME280;16044;52.726;-2.108;2022-07-04T03:44:29;101056.72;;;11.67;75.27
28935;BME280;16044;52.726;-2.108;2022-07-04T03:46:56;101059.28;;;11.77;75.01
28935;BME280;16044;52.726;-2.108;2022-07-04T03:49:25;101048.56;;;11.76;75.30
28935;BME280;16044;52.726;-2.108;2022-07-04T03:51:52;101046.88;;;11.83;75.36
28935;BME280;16044;52.726;-2.108;2022-07-04T03:54:19;101054.88;;;11.93;74.86
28935;BME280;16044;52.726;-2.108;2022-07-04T03:56:46;101050.44;;;12.00;74.74
28935;BME280;16044;52.726;-2.108;2022-07-04T03:59:13;101054.50;;;12.04;74.71
28935;BME280;16044;52.726;-2.108;2022-07-04T04:01:40;101054.53;;;12.12;74.57
28935;BME280;16044;52.726;-2.108;2022-07-04T04:04:07;101057.53;;;12.17;74.75
28935;BME280;16044;52.726;-2.108;2022-07-04T04:06:53;101060.97;;;12.19;74.51
28935;BME280;16044;52.726;-2.108;2022-07-04T04:09:20;101063.69;;;12.19;74.79
28935;BME280;16044;52.726;-2.108;2022-07-04T04:11:47;101056.50;;;12.26;74.76
28935;BME280;16044;52.726;-2.108;2022-07-04T04:14:14;101054.47;;;12.28;74.67
28935;BME280;16044;52.726;-2.108;2022-07-04T04:16:41;101051.56;;;12.30;74.56
28935;BME280;16044;52.726;-2.108;2022-07-04T04:19:10;101048.66;;;12.40;74.35
28935;BME280;16044;52.726;-2.108;2022-07-04T04:21:37;101053.78;;;12.35;74.56
28935;BME280;16044;52.726;-2.108;2022-07-04T04:24:05;101061.28;;;12.33;74.63
28935;BME280;16044;52.726;-2.108;2022-07-04T04:26:32;101056.72;;;12.25;74.84
28935;BME280;16044;52.726;-2.108;2022-07-04T04:28:59;101058.22;;;12.27;74.07
28935;BME280;16044;52.726;-2.108;2022-07-04T04:31:26;101060.25;;;12.25;74.04
28935;BME280;16044;52.726;-2.108;2022-07-04T04:33:53;101057.38;;;12.19;74.12
28935;BME280;16044;52.726;-2.108;2022-07-04T04:36:20;101055.53;;;12.11;74.41
28935;BME280;16044;52.726;-2.108;2022-07-04T04:38:47;101060.28;;;12.09;74.71
28935;BME280;16044;52.726;-2.108;2022-07-04T04:41:13;101064.03;;;12.08;74.54
28935;BME280;16044;52.726;-2.108;2022-07-04T04:43:40;101060.28;;;12.09;74.73
28935;BME280;16044;52.726;-2.108;2022-07-04T04:46:08;101064.03;;;12.08;74.91
28935;BME280;16044;52.726;-2.108;2022-07-04T04:48:35;101065.03;;;12.15;74.47
28935;BME280;16044;52.726;-2.108;2022-07-04T04:51:02;101080.50;;;12.15;75.09
28935;BME280;16044;52.726;-2.108;2022-07-04T04:53:34;101075.56;;;12.18;74.84
28935;BME280;16044;52.726;-2.108;2022-07-04T04:56:01;101071.97;;;12.26;74.60
28935;BME280;16044;52.726;-2.108;2022-07-04T04:58:29;101072.81;;;12.26;74.71
28935;BME280;16044;52.726;-2.108;2022-07-04T05:00:56;101075.19;;;12.29;75.02
28935;BME280;16044;52.726;-2.108;2022-07-04T05:03:43;101077.38;;;12.34;74.79
28935;BME280;16044;52.726;-2.108;2022-07-04T05:06:10;101073.81;;;12.34;75.05
28935;BME280;16044;52.726;-2.108;2022-07-04T05:08:37;101068.56;;;12.40;74.81
28935;BME280;16044;52.726;-2.108;2022-07-04T05:11:04;101067.69;;;12.48;74.37
28935;BME280;16044;52.726;-2.108;2022-07-04T05:13:31;101071.06;;;12.50;74.62
28935;BME280;16044;52.726;-2.108;2022-07-04T05:15:58;101071.41;;;12.55;74.61
28935;BME280;16044;52.726;-2.108;2022-07-04T05:18:25;101072.06;;;12.57;74.84
28935;BME280;16044;52.726;-2.108;2022-07-04T05:20:53;101075.97;;;12.63;74.38
28935;BME280;16044;52.726;-2.108;2022-07-04T05:23:20;101072.03;;;12.65;74.48
28935;BME280;16044;52.726;-2.108;2022-07-04T05:25:47;101069.75;;;12.77;74.25
28935;BME280;16044;52.726;-2.108;2022-07-04T05:28:14;101068.91;;;12.77;74.33
28935;BME280;16044;52.726;-2.108;2022-07-04T05:30:41;101084.03;;;12.79;74.36
28935;BME280;16044;52.726;-2.108;2022-07-04T05:33:09;101075.34;;;12.84;74.48
28935;BME280;16044;52.726;-2.108;2022-07-04T05:35:36;101080.41;;;12.87;74.50
28935;BME280;16044;52.726;-2.108;2022-07-04T05:38:02;101081.41;;;12.94;74.50
28935;BME280;16044;52.726;-2.108;2022-07-04T05:40:30;101083.63;;;12.99;74.41
28935;BME280;16044;52.726;-2.108;2022-07-04T05:42:57;101085.44;;;13.06;74.22
28935;BME280;16044;52.726;-2.108;2022-07-04T05:45:24;101090.88;;;13.06;74.52
28935;BME280;16044;52.726;-2.108;2022-07-04T05:47:51;101085.28;;;13.08;74.78
28935;BME280;16044;52.726;-2.108;2022-07-04T05:50:18;101079.78;;;13.16;74.47
28935;BME280;16044;52.726;-2.108;2022-07-04T05:52:44;101079.22;;;13.21;74.57
28935;BME280;16044;52.726;-2.108;2022-07-04T05:55:11;101069.00;;;13.23;74.59
28935;BME280;16044;52.726;-2.108;2022-07-04T05:57:38;101077.47;;;13.28;74.54
28935;BME280;16044;52.726;-2.108;2022-07-04T06:00:11;101082.22;;;13.34;74.23
28935;BME280;16044;52.726;-2.108;2022-07-04T06:02:38;101080.88;;;13.38;74.55
28935;BME280;16044;52.726;-2.108;2022-07-04T06:05:06;101081.69;;;13.39;74.63
28935;BME280;16044;52.726;-2.108;2022-07-04T06:07:33;101079.09;;;13.45;74.42
28935;BME280;16044;52.726;-2.108;2022-07-04T06:10:00;101078.06;;;13.47;74.43
28935;BME280;16044;52.726;-2.108;2022-07-04T06:12:27;101068.50;;;13.51;74.38
28935;BME280;16044;52.726;-2.108;2022-07-04T06:14:54;101075.09;;;13.56;74.18
28935;BME280;16044;52.726;-2.108;2022-07-04T06:17:21;101078.78;;;13.63;74.01
28935;BME280;16044;52.726;-2.108;2022-07-04T06:19:48;101083.09;;;13.58;74.78
28935;BME280;16044;52.726;-2.108;2022-07-04T06:22:14;101080.69;;;13.63;74.68
28935;BME280;16044;52.726;-2.108;2022-07-04T06:24:41;101071.09;;;13.67;74.29
28935;BME280;16044;52.726;-2.108;2022-07-04T06:27:09;101074.09;;;13.72;74.46
28935;BME280;16044;52.726;-2.108;2022-07-04T06:29:36;101084.13;;;13.80;74.31
28935;BME280;16044;52.726;-2.108;2022-07-04T06:32:03;101077.94;;;13.86;73.98
28935;BME280;16044;52.726;-2.108;2022-07-04T06:34:31;101075.47;;;13.91;74.14
28935;BME280;16044;52.726;-2.108;2022-07-04T06:37:16;101074.28;;;13.94;74.20
28935;BME280;16044;52.726;-2.108;2022-07-04T06:39:44;101080.03;;;13.99;74.37
28935;BME280;16044;52.726;-2.108;2022-07-04T06:42:11;101073.09;;;14.11;74.17
28935;BME280;16044;52.726;-2.108;2022-07-04T06:44:38;101076.00;;;14.24;74.09
28935;BME280;16044;52.726;-2.108;2022-07-04T06:47:04;101077.25;;;14.37;74.05
28935;BME280;16044;52.726;-2.108;2022-07-04T06:49:31;101074.44;;;14.45;73.84
28935;BME280;16044;52.726;-2.108;2022-07-04T06:51:58;101079.41;;;14.56;73.56
28935;BME280;16044;52.726;-2.108;2022-07-04T06:54:25;101069.56;;;14.70;73.41
28935;BME280;16044;52.726;-2.108;2022-07-04T06:56:52;101066.53;;;14.80;73.13
28935;BME280;16044;52.726;-2.108;2022-07-04T06:59:39;101075.56;;;14.95;72.25
28935;BME280;16044;52.726;-2.108;2022-07-04T07:02:06;101075.63;;;15.02;71.85
28935;BME280;16044;52.726;-2.108;2022-07-04T07:04:33;101073.81;;;15.09;71.84
28935;BME280;16044;52.726;-2.108;2022-07-04T07:07:00;101077.28;;;15.18;71.61
28935;BME280;16044;52.726;-2.108;2022-07-04T07:09:27;101072.16;;;15.30;70.27
28935;BME280;16044;52.726;-2.108;2022-07-04T07:11:54;101073.53;;;15.40;69.62
28935;BME280;16044;52.726;-2.108;2022-07-04T07:14:21;101063.91;;;15.45;69.24
28935;BME280;16044;52.726;-2.108;2022-07-04T07:16:47;101071.53;;;15.49;68.25
28935;BME280;16044;52.726;-2.108;2022-07-04T07:19:14;101078.22;;;15.47;67.96
28935;BME280;16044;52.726;-2.108;2022-07-04T07:21:41;101080.44;;;15.58;67.46
28935;BME280;16044;52.726;-2.108;2022-07-04T07:24:08;101077.06;;;15.56;67.50
28935;BME280;16044;52.726;-2.108;2022-07-04T07:26:35;101075.75;;;15.52;67.46
28935;BME280;16044;52.726;-2.108;2022-07-04T07:29:02;101074.53;;;15.54;67.02
28935;BME280;16044;52.726;-2.108;2022-07-04T07:31:31;101076.66;;;15.59;66.35
28935;BME280;16044;52.726;-2.108;2022-07-04T07:33:59;101082.63;;;15.48;67.12
28935;BME280;16044;52.726;-2.108;2022-07-04T07:36:27;101084.16;;;15.50;67.25
28935;BME280;16044;52.726;-2.108;2022-07-04T07:38:54;101083.81;;;15.60;66.25
28935;BME280;16044;52.726;-2.108;2022-07-04T07:41:23;101082.53;;;15.56;66.13
28935;BME280;16044;52.726;-2.108;2022-07-04T07:43:50;101082.72;;;15.54;66.83
28935;BME280;16044;52.726;-2.108;2022-07-04T07:46:17;101086.94;;;15.57;66.60
28935;BME280;16044;52.726;-2.108;2022-07-04T07:48:44;101085.78;;;15.45;67.05
28935;BME280;16044;52.726;-2.108;2022-07-04T07:51:11;101077.06;;;15.56;66.37
28935;BME280;16044;52.726;-2.108;2022-07-04T07:53:38;101088.75;;;15.50;66.79
28935;BME280;16044;52.726;-2.108;2022-07-04T07:56:25;101084.06;;;15.44;67.01
28935;BME280;16044;52.726;-2.108;2022-07-04T07:58:52;101093.69;;;15.39;67.39
28935;BME280;16044;52.726;-2.108;2022-07-04T08:01:19;101096.72;;;15.45;67.02
28935;BME280;16044;52.726;-2.108;2022-07-04T08:03:47;101095.91;;;15.51;66.98
28935;BME280;16044;52.726;-2.108;2022-07-04T08:06:38;101099.03;;;15.48;67.58
28935;BME280;16044;52.726;-2.108;2022-07-04T08:09:06;101104.75;;;15.53;67.20
28935;BME280;16044;52.726;-2.108;2022-07-04T08:11:33;101104.38;;;15.56;67.40
28935;BME280;16044;52.726;-2.108;2022-07-04T08:14:00;101103.97;;;15.59;67.26
28935;BME280;16044;52.726;-2.108;2022-07-04T08:16:27;101103.59;;;15.62;67.26
28935;BME280;16044;52.726;-2.108;2022-07-04T08:19:14;101101.72;;;15.63;67.21
28935;BME280;16044;52.726;-2.108;2022-07-04T08:21:41;101111.16;;;15.60;67.33
28935;BME280;16044;52.726;-2.108;2022-07-04T08:24:28;101114.72;;;15.60;66.61
28935;BME280;16044;52.726;-2.108;2022-07-04T08:26:56;101112.63;;;15.63;66.13
28935;BME280;16044;52.726;-2.108;2022-07-04T08:29:23;101112.81;;;15.61;66.05
28935;BME280;16044;52.726;-2.108;2022-07-04T08:31:50;101121.66;;;15.63;65.41
28935;BME280;16044;52.726;-2.108;2022-07-04T08:34:18;101128.47;;;15.67;65.19
28935;BME280;16044;52.726;-2.108;2022-07-04T08:36:45;101119.22;;;15.68;64.63
28935;BME280;16044;52.726;-2.108;2022-07-04T08:39:13;101126.28;;;15.77;63.95
28935;BME280;16044;52.726;-2.108;2022-07-04T08:41:41;101120.28;;;15.67;64.00
28935;BME280;16044;52.726;-2.108;2022-07-04T08:44:09;101124.22;;;15.65;63.95
28935;BME280;16044;52.726;-2.108;2022-07-04T08:46:38;101134.81;;;15.53;63.82
28935;BME280;16044;52.726;-2.108;2022-07-04T08:49:20;101128.44;;;15.46;63.81
28935;BME280;16044;52.726;-2.108;2022-07-04T08:51:55;101128.06;;;15.49;63.02
28935;BME280;16044;52.726;-2.108;2022-07-04T08:54:31;101127.00;;;15.50;63.36
28935;BME280;16044;52.726;-2.108;2022-07-04T08:57:18;101119.66;;;15.50;63.29
28935;BME280;16044;52.726;-2.108;2022-07-04T09:00:04;101111.25;;;15.52;62.98
28935;BME280;16044;52.726;-2.108;2022-07-04T09:02:34;101112.59;;;15.56;63.30
28935;BME280;16044;52.726;-2.108;2022-07-04T09:05:03;101112.00;;;15.60;62.95
28935;BME280;16044;52.726;-2.108;2022-07-04T09:07:31;101102.44;;;15.71;62.91
28935;BME280;16044;52.726;-2.108;2022-07-04T09:09:58;101112.47;;;15.86;62.63
28935;BME280;16044;52.726;-2.108;2022-07-04T09:12:26;101100.50;;;15.87;62.41
28935;BME280;16044;52.726;-2.108;2022-07-04T09:14:53;101105.06;;;16.01;61.68
28935;BME280;16044;52.726;-2.108;2022-07-04T09:17:21;101109.19;;;15.97;62.04
28935;BME280;16044;52.726;-2.108;2022-07-04T09:20:11;101112.03;;;16.10;61.00
28935;BME280;16044;52.726;-2.108;2022-07-04T09:22:43;101117.75;;;16.37;61.05
28935;BME280;16044;52.726;-2.108;2022-07-04T09:25:11;101102.25;;;16.51;60.31
28935;BME280;16044;52.726;-2.108;2022-07-04T09:27:46;101097.28;;;16.68;59.61
28935;BME280;16044;52.726;-2.108;2022-07-04T09:30:23;101100.59;;;16.91;60.24
28935;BME280;16044;52.726;-2.108;2022-07-04T09:32:53;101096.72;;;17.27;58.08
28935;BME280;16044;52.726;-2.108;2022-07-04T09:35:28;101097.22;;;17.51;57.45
28935;BME280;16044;52.726;-2.108;2022-07-04T09:38:00;101093.88;;;17.76;57.46
28935;BME280;16044;52.726;-2.108;2022-07-04T09:40:33;101093.91;;;18.09;56.89
28935;BME280;16044;52.726;-2.108;2022-07-04T09:43:25;101091.13;;;18.49;55.34
28935;BME280;16044;52.726;-2.108;2022-07-04T09:45:54;101097.63;;;18.61;54.27
28935;BME280;16044;52.726;-2.108;2022-07-04T09:48:25;101092.56;;;18.65;52.94
28935;BME280;16044;52.726;-2.108;2022-07-04T09:50:52;101087.91;;;18.65;53.64
28935;BME280;16044;52.726;-2.108;2022-07-04T09:53:26;101091.91;;;18.76;52.39
28935;BME280;16044;52.726;-2.108;2022-07-04T09:55:54;101097.44;;;18.63;52.45
28935;BME280;16044;52.726;-2.108;2022-07-04T09:58:21;101091.94;;;18.69;52.71
28935;BME280;16044;52.726;-2.108;2022-07-04T10:00:47;101091.69;;;18.78;52.18
28935;BME280;16044;52.726;-2.108;2022-07-04T10:06:07;101093.84;;;18.62;51.80
28935;BME280;16044;52.726;-2.108;2022-07-04T10:08:38;101089.41;;;18.61;51.78
28935;BME280;16044;52.726;-2.108;2022-07-04T10:11:07;101087.69;;;18.67;51.20
28935;BME280;16044;52.726;-2.108;2022-07-04T10:13:38;101096.81;;;18.54;51.48
28935;BME280;16044;52.726;-2.108;2022-07-04T10:16:05;101100.22;;;18.36;51.22
28935;BME280;16044;52.726;-2.108;2022-07-04T10:18:34;101096.44;;;18.24;51.22
28935;BME280;16044;52.726;-2.108;2022-07-04T10:21:02;101091.81;;;18.04;51.70
28935;BME280;16044;52.726;-2.108;2022-07-04T10:23:29;101099.84;;;18.06;52.10
28935;BME280;16044;52.726;-2.108;2022-07-04T10:25:59;101084.63;;;18.10;52.99
28935;BME280;16044;52.726;-2.108;2022-07-04T10:28:26;101085.06;;;18.14;53.25
28935;BME280;16044;52.726;-2.108;2022-07-04T10:30:56;101079.78;;;18.19;53.44
28935;BME280;16044;52.726;-2.108;2022-07-04T10:33:26;101079.97;;;18.10;53.29
28935;BME280;16044;52.726;-2.108;2022-07-04T10:35:57;101085.44;;;18.24;53.19
28935;BME280;16044;52.726;-2.108;2022-07-04T10:38:32;101098.75;;;18.27;52.68
28935;BME280;16044;52.726;-2.108;2022-07-04T10:41:06;101095.16;;;18.33;52.61
28935;BME280;16044;52.726;-2.108;2022-07-04T10:48:57;101100.63;;;18.53;52.93
28935;BME280;16044;52.726;-2.108;2022-07-04T10:51:46;101101.22;;;18.75;52.22
28935;BME280;16044;52.726;-2.108;2022-07-04T10:56:54;101085.75;;;18.94;50.70
28935;BME280;16044;52.726;-2.108;2022-07-04T10:59:29;101088.84;;;19.11;50.90
28935;BME280;16044;52.726;-2.108;2022-07-04T11:05:10;101083.66;;;19.66;49.76
28935;BME280;16044;52.726;-2.108;2022-07-04T11:17:59;101079.03;;;20.61;49.25
28935;BME280;16044;52.726;-2.108;2022-07-04T11:20:32;101090.19;;;20.66;48.50
28935;BME280;16044;52.726;-2.108;2022-07-04T11:25:32;101092.44;;;20.32;46.26
28935;BME280;16044;52.726;-2.108;2022-07-04T11:28:21;101083.22;;;20.20;46.05
28935;BME280;16044;52.726;-2.108;2022-07-04T11:31:10;101087.81;;;20.26;45.50
28935;BME280;16044;52.726;-2.108;2022-07-04T11:33:39;101086.72;;;20.09;46.47
28935;BME280;16044;52.726;-2.108;2022-07-04T11:36:17;101089.47;;;20.09;46.50
28935;BME280;16044;52.726;-2.108;2022-07-04T11:38:54;101086.91;;;20.14;46.68
28935;BME280;16044;52.726;-2.108;2022-07-04T11:41:35;101090.59;;;20.01;44.93
28935;BME280;16044;52.726;-2.108;2022-07-04T11:44:24;101093.63;;;20.18;45.36
28935;BME280;16044;52.726;-2.108;2022-07-04T11:49:44;101094.06;;;20.15;45.30
28935;BME280;16044;52.726;-2.108;2022-07-04T11:52:17;101081.78;;;19.92;45.45
28935;BME280;16044;52.726;-2.108;2022-07-04T11:55:05;101093.94;;;20.10;45.90
28935;BME280;16044;52.726;-2.108;2022-07-04T11:57:41;101087.72;;;20.14;46.22
28935;BME280;16044;52.726;-2.108;2022-07-04T12:00:20;101097.31;;;20.30;46.50
28935;BME280;16044;52.726;-2.108;2022-07-04T12:02:58;101101.75;;;20.31;45.76
28935;BME280;16044;52.726;-2.108;2022-07-04T12:05:27;101101.97;;;20.30;45.72
28935;BME280;16044;52.726;-2.108;2022-07-04T12:07:54;101112.34;;;20.34;45.68
28935;BME280;16044;52.726;-2.108;2022-07-04T12:10:41;101106.47;;;20.24;45.59
28935;BME280;16044;52.726;-2.108;2022-07-04T12:13:14;101103.63;;;20.12;45.44
28935;BME280;16044;52.726;-2.108;2022-07-04T12:15:47;101098.97;;;20.13;45.31
28935;BME280;16044;52.726;-2.108;2022-07-04T12:18:25;101107.28;;;20.06;45.85
28935;BME280;16044;52.726;-2.108;2022-07-04T12:21:10;101097.84;;;19.95;45.19
28935;BME280;16044;52.726;-2.108;2022-07-04T12:23:38;101102.22;;;20.03;45.79
28935;BME280;16044;52.726;-2.108;2022-07-04T12:26:26;101099.44;;;20.10;44.80
28935;BME280;16044;52.726;-2.108;2022-07-04T12:28:54;101094.59;;;20.05;44.49
28935;BME280;16044;52.726;-2.108;2022-07-04T12:31:42;101092.44;;;20.07;45.22
28935;BME280;16044;52.726;-2.108;2022-07-04T12:34:17;101089.34;;;20.22;45.41
28935;BME280;16044;52.726;-2.108;2022-07-04T12:36:54;101083.22;;;20.20;45.69
28935;BME280;16044;52.726;-2.108;2022-07-04T12:39:32;101083.28;;;20.38;45.87
28935;BME280;16044;52.726;-2.108;2022-07-04T12:42:07;101078.84;;;20.56;45.40
28935;BME280;16044;52.726;-2.108;2022-07-04T12:44:36;101080.09;;;20.78;45.04
28935;BME280;16044;52.726;-2.108;2022-07-04T12:47:05;101088.06;;;20.87;44.44
28935;BME280;16044;52.726;-2.108;2022-07-04T12:49:52;101089.47;;;21.08;44.30
28935;BME280;16044;52.726;-2.108;2022-07-04T12:52:20;101096.69;;;21.09;43.27
28935;BME280;16044;52.726;-2.108;2022-07-04T12:55:02;101096.13;;;21.18;42.82
28935;BME280;16044;52.726;-2.108;2022-07-04T12:57:30;101092.69;;;21.23;43.47
28935;BME280;16044;52.726;-2.108;2022-07-04T12:59:57;101090.28;;;21.45;43.42
28935;BME280;16044;52.726;-2.108;2022-07-04T13:02:44;101083.34;;;21.54;42.21
28935;BME280;16044;52.726;-2.108;2022-07-04T13:05:11;101096.34;;;21.66;42.57
28935;BME280;16044;52.726;-2.108;2022-07-04T13:07:38;101080.06;;;21.76;42.29
28935;BME280;16044;52.726;-2.108;2022-07-04T13:10:05;101084.03;;;21.80;41.44
28935;BME280;16044;52.726;-2.108;2022-07-04T13:12:32;101084.25;;;21.78;41.15
28935;BME280;16044;52.726;-2.108;2022-07-04T13:14:59;101085.94;;;21.79;41.88
28935;BME280;16044;52.726;-2.108;2022-07-04T13:17:26;101093.81;;;21.64;42.35
28935;BME280;16044;52.726;-2.108;2022-07-04T13:19:53;101090.22;;;21.64;42.20
28935;BME280;16044;52.726;-2.108;2022-07-04T13:22:22;101091.75;;;21.48;42.46